sensor_id;sensor_type;location;lat;lon;timestamp;P1;P2;P0
65383;PMS5003;51986;52.788;41.368;2023-04-08T00:00:01;25.00;22.00;18.75
65383;PMS5003;51986;52.788;41.368;2023-04-08T00:02:35;26.00;23.00;18.50
65383;PMS5003;51986;52.788;41.368;2023-04-08T00:05:03;23.00;20.00;17.00
65383;PMS5003;51986;52.788;41.368;2023-04-08T00:07:30;25.75;22.75;19.00
65383;PMS5003;51986;52.788;41.368;2023-04-08T00:09:57;26.00;23.00;19.00
65383;PMS5003;51986;52.788;41.368;2023-04-08T00:12:24;19.00;17.25;15.00
65383;PMS5003;51986;52.788;41.368;2023-04-08T00:14:51;20.25;18.50;15.00
65383;PMS5003;51986;52.788;41.368;2023-04-08T00:17:18;29.75;24.75;19.75
65383;PMS5003;51986;52.788;41.368;2023-04-08T00:19:45;24.75;22.00;17.50
65383;PMS5003;51986;52.788;41.368;2023-04-08T00:22:12;19.00;19.00;15.00
65383;PMS5003;51986;52.788;41.368;2023-04-08T00:24:39;20.00;19.00;15.00
65383;PMS5003;51986;52.788;41.368;2023-04-08T00:27:06;25.25;22.00;18.00
65383;PMS5003;51986;52.788;41.368;2023-04-08T00:29:33;23.00;21.00;17.00
65383;PMS5003;51986;52.788;41.368;2023-04-08T00:32:00;15.75;15.25;11.50
65383;PMS5003;51986;52.788;41.368;2023-04-08T00:34:27;19.00;18.00;14.00
65383;PMS5003;51986;52.788;41.368;2023-04-08T00:36:54;24.25;22.25;18.25
65383;PMS5003;51986;52.788;41.368;2023-04-08T00:39:21;23.25;21.25;17.25
65383;PMS5003;51986;52.788;41.368;2023-04-08T00:41:48;20.00;18.50;15.25
65383;PMS5003;51986;52.788;41.368;2023-04-08T00:44:15;27.75;22.75;18.50
65383;PMS5003;51986;52.788;41.368;2023-04-08T00:46:42;31.00;25.50;20.00
65383;PMS5003;51986;52.788;41.368;2023-04-08T00:49:09;20.00;18.50;14.50
65383;PMS5003;51986;52.788;41.368;2023-04-08T00:51:36;26.75;22.00;18.00
65383;PMS5003;51986;52.788;41.368;2023-04-08T00:54:03;26.50;22.00;18.00
65383;PMS5003;51986;52.788;41.368;2023-04-08T00:56:30;29.00;24.00;19.00
65383;PMS5003;51986;52.788;41.368;2023-04-08T00:59:01;24.00;21.00;17.00
65383;PMS5003;51986;52.788;41.368;2023-04-08T01:01:40;19.00;18.00;15.00
65383;PMS5003;51986;52.788;41.368;2023-04-08T01:09:18;29.00;24.00;18.00
65383;PMS5003;51986;52.788;41.368;2023-04-08T01:11:49;29.00;24.50;18.50
65383;PMS5003;51986;52.788;41.368;2023-04-08T01:14:20;21.50;19.50;15.75
65383;PMS5003;51986;52.788;41.368;2023-04-08T01:16:54;20.00;18.00;15.00
65383;PMS5003;51986;52.788;41.368;2023-04-08T01:19:29;18.00;18.00;14.00
65383;PMS5003;51986;52.788;41.368;2023-04-08T01:24:39;26.50;23.00;18.00
65383;PMS5003;51986;52.788;41.368;2023-04-08T01:27:09;25.25;22.25;18.00
65383;PMS5003;51986;52.788;41.368;2023-04-08T01:29:39;24.00;22.00;18.00
65383;PMS5003;51986;52.788;41.368;2023-04-08T01:32:09;29.00;24.50;19.00
65383;PMS5003;51986;52.788;41.368;2023-04-08T01:34:37;20.75;20.00;16.00
65383;PMS5003;51986;52.788;41.368;2023-04-08T01:37:07;26.25;23.00;18.00
65383;PMS5003;51986;52.788;41.368;2023-04-08T01:39:34;27.00;24.00;18.00
65383;PMS5003;51986;52.788;41.368;2023-04-08T01:42:04;21.00;20.00;16.00
65383;PMS5003;51986;52.788;41.368;2023-04-08T01:44:31;19.00;18.00;15.00
65383;PMS5003;51986;52.788;41.368;2023-04-08T01:46:58;26.25;23.25;18.00
65383;PMS5003;51986;52.788;41.368;2023-04-08T01:49:26;20.25;19.75;14.75
65383;PMS5003;51986;52.788;41.368;2023-04-08T01:51:55;16.00;15.75;12.75
65383;PMS5003;51986;52.788;41.368;2023-04-08T01:54:24;16.75;16.75;13.00
65383;PMS5003;51986;52.788;41.368;2023-04-08T01:56:51;16.00;14.00;12.00
65383;PMS5003;51986;52.788;41.368;2023-04-08T01:59:20;23.75;21.50;17.25
65383;PMS5003;51986;52.788;41.368;2023-04-08T02:01:50;29.00;25.00;19.50
65383;PMS5003;51986;52.788;41.368;2023-04-08T02:04:18;29.25;25.00;20.00
65383;PMS5003;51986;52.788;41.368;2023-04-08T02:06:45;26.00;24.00;18.00
65383;PMS5003;51986;52.788;41.368;2023-04-08T02:09:12;21.00;20.00;15.50
65383;PMS5003;51986;52.788;41.368;2023-04-08T02:11:39;25.50;22.50;18.00
65383;PMS5003;51986;52.788;41.368;2023-04-08T02:14:06;20.00;19.75;15.00
65383;PMS5003;51986;52.788;41.368;2023-04-08T02:16:44;21.75;20.75;17.50
65383;PMS5003;51986;52.788;41.368;2023-04-08T02:19:17;28.25;24.50;19.50
65383;PMS5003;51986;52.788;41.368;2023-04-08T02:21:51;22.50;20.75;16.50
65383;PMS5003;51986;52.788;41.368;2023-04-08T02:24:23;18.00;18.00;14.00
65383;PMS5003;51986;52.788;41.368;2023-04-08T02:26:56;22.00;21.00;16.00
65383;PMS5003;51986;52.788;41.368;2023-04-08T02:29:24;21.00;19.25;15.00
65383;PMS5003;51986;52.788;41.368;2023-04-08T02:31:55;19.00;19.00;15.00
65383;PMS5003;51986;52.788;41.368;2023-04-08T02:34:23;13.50;13.50;11.25
65383;PMS5003;51986;52.788;41.368;2023-04-08T02:36:52;20.25;20.00;15.25
65383;PMS5003;51986;52.788;41.368;2023-04-08T02:39:19;20.50;20.00;16.00
65383;PMS5003;51986;52.788;41.368;2023-04-08T02:41:48;13.00;12.75;11.00
65383;PMS5003;51986;52.788;41.368;2023-04-08T02:44:15;18.00;17.75;14.25
65383;PMS5003;51986;52.788;41.368;2023-04-08T02:46:42;27.75;24.00;19.25
65383;PMS5003;51986;52.788;41.368;2023-04-08T02:49:11;23.50;21.50;16.00
65383;PMS5003;51986;52.788;41.368;2023-04-08T02:51:38;25.75;23.00;18.00
65383;PMS5003;51986;52.788;41.368;2023-04-08T02:54:05;21.00;20.00;16.50
65383;PMS5003;51986;52.788;41.368;2023-04-08T02:56:32;27.25;23.50;19.00
65383;PMS5003;51986;52.788;41.368;2023-04-08T02:58:59;24.00;22.00;17.00
65383;PMS5003;51986;52.788;41.368;2023-04-08T03:01:26;29.25;25.00;20.00
65383;PMS5003;51986;52.788;41.368;2023-04-08T03:03:53;25.50;23.25;18.00
65383;PMS5003;51986;52.788;41.368;2023-04-08T03:06:19;26.50;24.00;19.00
65383;PMS5003;51986;52.788;41.368;2023-04-08T03:08:46;30.00;25.75;20.00
65383;PMS5003;51986;52.788;41.368;2023-04-08T03:11:14;31.00;26.50;20.75
65383;PMS5003;51986;52.788;41.368;2023-04-08T03:13:41;33.00;28.50;22.00
65383;PMS5003;51986;52.788;41.368;2023-04-08T03:16:08;28.25;25.00;19.25
65383;PMS5003;51986;52.788;41.368;2023-04-08T03:18:34;27.00;24.00;19.00
65383;PMS5003;51986;52.788;41.368;2023-04-08T03:21:01;31.50;26.50;21.50
65383;PMS5003;51986;52.788;41.368;2023-04-08T03:23:28;33.00;27.50;21.50
65383;PMS5003;51986;52.788;41.368;2023-04-08T03:25:55;31.50;26.50;20.75
65383;PMS5003;51986;52.788;41.368;2023-04-08T03:28:22;30.75;26.50;21.00
65383;PMS5003;51986;52.788;41.368;2023-04-08T03:30:49;35.50;30.00;23.00
65383;PMS5003;51986;52.788;41.368;2023-04-08T03:33:16;38.00;31.75;25.50
65383;PMS5003;51986;52.788;41.368;2023-04-08T03:35:43;37.00;31.00;24.00
65383;PMS5003;51986;52.788;41.368;2023-04-08T03:38:10;35.50;29.50;24.00
65383;PMS5003;51986;52.788;41.368;2023-04-08T03:40:37;36.50;30.00;23.50
65383;PMS5003;51986;52.788;41.368;2023-04-08T03:43:04;38.00;31.75;25.00
65383;PMS5003;51986;52.788;41.368;2023-04-08T03:45:30;38.50;32.00;25.00
65383;PMS5003;51986;52.788;41.368;2023-04-08T03:47:57;38.00;32.00;25.00
65383;PMS5003;51986;52.788;41.368;2023-04-08T03:50:24;39.00;33.00;25.00
65383;PMS5003;51986;52.788;41.368;2023-04-08T03:52:52;38.00;32.00;24.50
65383;PMS5003;51986;52.788;41.368;2023-04-08T03:55:19;38.00;31.50;24.50
65383;PMS5003;51986;52.788;41.368;2023-04-08T03:57:46;38.50;32.00;25.00
65383;PMS5003;51986;52.788;41.368;2023-04-08T04:00:13;37.50;31.50;24.50
65383;PMS5003;51986;52.788;41.368;2023-04-08T04:02:43;36.50;30.00;23.50
65383;PMS5003;51986;52.788;41.368;2023-04-08T04:05:10;38.50;32.00;26.00
65383;PMS5003;51986;52.788;41.368;2023-04-08T04:07:37;39.50;33.00;25.00
65383;PMS5003;51986;52.788;41.368;2023-04-08T04:10:04;38.00;32.50;25.00
65383;PMS5003;51986;52.788;41.368;2023-04-08T04:12:32;37.50;31.50;24.50
65383;PMS5003;51986;52.788;41.368;2023-04-08T04:14:59;36.00;30.00;24.00
65383;PMS5003;51986;52.788;41.368;2023-04-08T04:17:26;36.00;30.00;24.25
65383;PMS5003;51986;52.788;41.368;2023-04-08T04:19:53;37.50;31.00;24.50
65383;PMS5003;51986;52.788;41.368;2023-04-08T04:22:20;36.00;31.00;24.00
65383;PMS5003;51986;52.788;41.368;2023-04-08T04:24:47;34.50;29.50;23.00
65383;PMS5003;51986;52.788;41.368;2023-04-08T04:27:14;36.50;30.50;24.25
65383;PMS5003;51986;52.788;41.368;2023-04-08T04:29:42;35.50;30.50;23.50
65383;PMS5003;51986;52.788;41.368;2023-04-08T04:32:10;37.75;31.50;24.00
65383;PMS5003;51986;52.788;41.368;2023-04-08T04:34:37;38.50;31.75;24.00
65383;PMS5003;51986;52.788;41.368;2023-04-08T04:37:04;35.00;28.75;22.00
65383;PMS5003;51986;52.788;41.368;2023-04-08T04:39:31;34.50;28.25;22.00
65383;PMS5003;51986;52.788;41.368;2023-04-08T04:41:58;34.50;29.00;23.50
65383;PMS5003;51986;52.788;41.368;2023-04-08T04:44:25;32.50;27.50;22.00
65383;PMS5003;51986;52.788;41.368;2023-04-08T04:46:52;31.50;27.00;21.00
65383;PMS5003;51986;52.788;41.368;2023-04-08T04:49:19;34.50;29.00;23.00
65383;PMS5003;51986;52.788;41.368;2023-04-08T04:51:46;35.50;30.00;23.00
65383;PMS5003;51986;52.788;41.368;2023-04-08T04:54:13;35.00;29.00;22.50
65383;PMS5003;51986;52.788;41.368;2023-04-08T04:56:40;34.75;29.50;23.00
65383;PMS5003;51986;52.788;41.368;2023-04-08T04:59:07;35.50;29.75;22.50
65383;PMS5003;51986;52.788;41.368;2023-04-08T05:01:34;33.00;28.00;21.50
65383;PMS5003;51986;52.788;41.368;2023-04-08T05:04:01;33.00;27.00;22.00
65383;PMS5003;51986;52.788;41.368;2023-04-08T05:06:28;35.00;29.50;22.25
65383;PMS5003;51986;52.788;41.368;2023-04-08T05:08:55;31.75;27.00;21.00
65383;PMS5003;51986;52.788;41.368;2023-04-08T05:11:23;31.50;26.50;21.00
65383;PMS5003;51986;52.788;41.368;2023-04-08T05:13:50;32.00;27.25;22.00
65383;PMS5003;51986;52.788;41.368;2023-04-08T05:16:17;32.50;27.00;21.00
65383;PMS5003;51986;52.788;41.368;2023-04-08T05:18:44;30.00;25.00;20.00
65383;PMS5003;51986;52.788;41.368;2023-04-08T05:21:11;31.50;26.50;20.50
65383;PMS5003;51986;52.788;41.368;2023-04-08T05:23:38;35.00;29.00;23.00
65383;PMS5003;51986;52.788;41.368;2023-04-08T05:26:08;35.25;30.00;23.00
65383;PMS5003;51986;52.788;41.368;2023-04-08T05:28:35;34.00;29.00;23.00
65383;PMS5003;51986;52.788;41.368;2023-04-08T05:31:02;29.75;24.00;19.50
65383;PMS5003;51986;52.788;41.368;2023-04-08T05:33:31;26.50;23.00;18.75
65383;PMS5003;51986;52.788;41.368;2023-04-08T05:35:58;33.00;28.00;22.00
65383;PMS5003;51986;52.788;41.368;2023-04-08T05:38:25;30.00;26.00;21.00
65383;PMS5003;51986;52.788;41.368;2023-04-08T05:40:52;26.00;23.00;19.00
65383;PMS5003;51986;52.788;41.368;2023-04-08T05:43:19;28.00;24.00;19.00
65383;PMS5003;51986;52.788;41.368;2023-04-08T05:45:45;30.50;25.50;20.00
65383;PMS5003;51986;52.788;41.368;2023-04-08T05:48:12;27.00;24.00;19.00
65383;PMS5003;51986;52.788;41.368;2023-04-08T05:50:41;25.00;22.50;18.00
65383;PMS5003;51986;52.788;41.368;2023-04-08T05:53:08;30.00;25.75;20.00
65383;PMS5003;51986;52.788;41.368;2023-04-08T05:55:35;35.50;29.00;23.00
65383;PMS5003;51986;52.788;41.368;2023-04-08T05:58:02;28.75;25.00;20.00
65383;PMS5003;51986;52.788;41.368;2023-04-08T06:00:29;31.50;26.00;21.00
65383;PMS5003;51986;52.788;41.368;2023-04-08T06:02:56;29.00;24.75;19.50
65383;PMS5003;51986;52.788;41.368;2023-04-08T06:05:23;24.75;22.75;18.50
65383;PMS5003;51986;52.788;41.368;2023-04-08T06:07:50;29.50;25.00;20.00
65383;PMS5003;51986;52.788;41.368;2023-04-08T06:10:17;33.50;28.25;23.00
65383;PMS5003;51986;52.788;41.368;2023-04-08T06:12:44;30.25;26.00;20.00
65383;PMS5003;51986;52.788;41.368;2023-04-08T06:15:11;27.25;23.25;19.25
65383;PMS5003;51986;52.788;41.368;2023-04-08T06:17:38;31.50;26.50;20.00
65383;PMS5003;51986;52.788;41.368;2023-04-08T06:20:05;30.00;25.00;20.00
65383;PMS5003;51986;52.788;41.368;2023-04-08T06:22:32;32.25;27.25;22.00
65383;PMS5003;51986;52.788;41.368;2023-04-08T06:24:59;31.00;25.75;21.00
65383;PMS5003;51986;52.788;41.368;2023-04-08T06:27:26;34.75;28.75;22.25
65383;PMS5003;51986;52.788;41.368;2023-04-08T06:29:53;34.50;29.00;22.00
65383;PMS5003;51986;52.788;41.368;2023-04-08T06:32:20;34.50;29.25;23.00
65383;PMS5003;51986;52.788;41.368;2023-04-08T06:34:48;35.00;29.75;23.00
65383;PMS5003;51986;52.788;41.368;2023-04-08T06:37:15;31.00;25.00;19.50
65383;PMS5003;51986;52.788;41.368;2023-04-08T06:39:44;32.50;27.50;22.00
65383;PMS5003;51986;52.788;41.368;2023-04-08T06:42:11;32.50;28.00;22.50
65383;PMS5003;51986;52.788;41.368;2023-04-08T06:45:01;32.50;28.00;22.00
65383;PMS5003;51986;52.788;41.368;2023-04-08T06:47:28;33.50;28.00;22.00
65383;PMS5003;51986;52.788;41.368;2023-04-08T06:49:55;34.75;29.00;23.00
65383;PMS5003;51986;52.788;41.368;2023-04-08T06:52:22;33.00;28.00;21.50
65383;PMS5003;51986;52.788;41.368;2023-04-08T06:54:49;33.00;28.00;21.50
65383;PMS5003;51986;52.788;41.368;2023-04-08T06:57:34;32.00;27.00;22.00
65383;PMS5003;51986;52.788;41.368;2023-04-08T07:00:20;30.00;25.00;20.00
65383;PMS5003;51986;52.788;41.368;2023-04-08T07:02:47;28.75;25.00;20.00
65383;PMS5003;51986;52.788;41.368;2023-04-08T07:05:14;32.50;27.50;21.75
65383;PMS5003;51986;52.788;41.368;2023-04-08T07:07:41;34.00;28.50;23.00
65383;PMS5003;51986;52.788;41.368;2023-04-08T07:10:08;34.50;29.50;23.00
65383;PMS5003;51986;52.788;41.368;2023-04-08T07:12:36;35.50;29.50;23.00
65383;PMS5003;51986;52.788;41.368;2023-04-08T07:15:04;31.75;27.00;20.50
65383;PMS5003;51986;52.788;41.368;2023-04-08T07:17:31;32.50;27.50;21.50
65383;PMS5003;51986;52.788;41.368;2023-04-08T07:19:58;34.50;29.00;22.50
65383;PMS5003;51986;52.788;41.368;2023-04-08T07:22:43;33.50;28.50;22.00
65383;PMS5003;51986;52.788;41.368;2023-04-08T07:25:11;32.50;27.50;22.00
65383;PMS5003;51986;52.788;41.368;2023-04-08T07:27:38;35.00;29.00;23.00
65383;PMS5003;51986;52.788;41.368;2023-04-08T07:30:05;32.00;27.00;21.00
65383;PMS5003;51986;52.788;41.368;2023-04-08T07:32:33;29.50;26.00;21.00
65383;PMS5003;51986;52.788;41.368;2023-04-08T07:37:46;36.00;30.00;24.00
65383;PMS5003;51986;52.788;41.368;2023-04-08T07:40:14;35.50;30.00;23.00
65383;PMS5003;51986;52.788;41.368;2023-04-08T07:43:00;32.00;27.50;21.00
65383;PMS5003;51986;52.788;41.368;2023-04-08T07:45:27;31.50;27.50;21.50
65383;PMS5003;51986;52.788;41.368;2023-04-08T07:47:54;34.50;29.00;23.00
65383;PMS5003;51986;52.788;41.368;2023-04-08T07:50:21;33.00;27.50;22.00
65383;PMS5003;51986;52.788;41.368;2023-04-08T07:52:48;29.75;25.00;20.50
65383;PMS5003;51986;52.788;41.368;2023-04-08T07:55:34;29.00;24.50;19.75
65383;PMS5003;51986;52.788;41.368;2023-04-08T07:58:01;29.00;25.00;20.00
65383;PMS5003;51986;52.788;41.368;2023-04-08T08:00:28;26.50;24.00;19.25
65383;PMS5003;51986;52.788;41.368;2023-04-08T08:02:55;29.00;25.50;20.25
65383;PMS5003;51986;52.788;41.368;2023-04-08T08:05:22;27.50;24.00;19.25
65383;PMS5003;51986;52.788;41.368;2023-04-08T08:07:49;32.75;27.50;21.50
65383;PMS5003;51986;52.788;41.368;2023-04-08T08:10:16;34.50;29.00;22.50
65383;PMS5003;51986;52.788;41.368;2023-04-08T08:12:43;35.75;30.25;23.00
65383;PMS5003;51986;52.788;41.368;2023-04-08T08:15:10;34.50;29.50;22.50
65383;PMS5003;51986;52.788;41.368;2023-04-08T08:17:37;33.00;28.00;22.00
65383;PMS5003;51986;52.788;41.368;2023-04-08T08:20:05;33.00;28.00;22.50
65383;PMS5003;51986;52.788;41.368;2023-04-08T08:22:32;31.00;25.75;20.50
65383;PMS5003;51986;52.788;41.368;2023-04-08T08:25:07;30.00;26.00;20.00
65383;PMS5003;51986;52.788;41.368;2023-04-08T08:27:34;30.00;25.50;20.00
65383;PMS5003;51986;52.788;41.368;2023-04-08T08:30:04;25.50;23.50;18.50
65383;PMS5003;51986;52.788;41.368;2023-04-08T08:32:32;31.25;27.00;20.50
65383;PMS5003;51986;52.788;41.368;2023-04-08T08:34:59;34.75;29.00;23.00
65383;PMS5003;51986;52.788;41.368;2023-04-08T08:37:26;36.50;30.00;23.00
65383;PMS5003;51986;52.788;41.368;2023-04-08T08:39:53;38.00;31.00;24.00
65383;PMS5003;51986;52.788;41.368;2023-04-08T08:42:20;34.00;28.00;22.00
65383;PMS5003;51986;52.788;41.368;2023-04-08T08:44:48;33.50;28.00;21.00
65383;PMS5003;51986;52.788;41.368;2023-04-08T08:47:15;34.50;28.50;22.50
65383;PMS5003;51986;52.788;41.368;2023-04-08T08:49:43;34.50;29.00;23.25
65383;PMS5003;51986;52.788;41.368;2023-04-08T08:52:14;34.50;29.50;24.00
65383;PMS5003;51986;52.788;41.368;2023-04-08T08:54:42;35.00;29.00;23.00
65383;PMS5003;51986;52.788;41.368;2023-04-08T08:57:19;32.50;27.00;21.50
65383;PMS5003;51986;52.788;41.368;2023-04-08T08:59:46;29.00;25.00;20.00
65383;PMS5003;51986;52.788;41.368;2023-04-08T09:02:35;31.75;27.00;21.50
65383;PMS5003;51986;52.788;41.368;2023-04-08T09:05:02;34.00;28.00;22.00
65383;PMS5003;51986;52.788;41.368;2023-04-08T09:07:30;32.75;28.00;22.00
65383;PMS5003;51986;52.788;41.368;2023-04-08T09:10:02;34.50;28.50;23.00
65383;PMS5003;51986;52.788;41.368;2023-04-08T09:12:29;36.00;30.00;23.50
65383;PMS5003;51986;52.788;41.368;2023-04-08T09:15:03;35.00;28.00;22.00
65383;PMS5003;51986;52.788;41.368;2023-04-08T09:17:31;29.25;25.00;19.75
65383;PMS5003;51986;52.788;41.368;2023-04-08T09:20:03;31.75;27.75;22.00
65383;PMS5003;51986;52.788;41.368;2023-04-08T09:22:30;33.50;28.50;22.50
65383;PMS5003;51986;52.788;41.368;2023-04-08T09:24:57;33.50;29.00;22.75
65383;PMS5003;51986;52.788;41.368;2023-04-08T09:27:33;33.00;28.00;22.00
65383;PMS5003;51986;52.788;41.368;2023-04-08T09:30:13;35.00;29.50;23.25
65383;PMS5003;51986;52.788;41.368;2023-04-08T09:32:48;37.75;32.00;25.00
65383;PMS5003;51986;52.788;41.368;2023-04-08T09:35:16;34.25;29.00;22.75
65383;PMS5003;51986;52.788;41.368;2023-04-08T09:37:46;36.00;30.50;24.00
65383;PMS5003;51986;52.788;41.368;2023-04-08T09:40:14;35.00;29.50;23.00
65383;PMS5003;51986;52.788;41.368;2023-04-08T09:42:43;33.00;28.00;23.00
65383;PMS5003;51986;52.788;41.368;2023-04-08T09:45:14;34.00;28.50;22.75
65383;PMS5003;51986;52.788;41.368;2023-04-08T09:47:55;35.00;28.50;23.00
65383;PMS5003;51986;52.788;41.368;2023-04-08T09:50:30;35.50;29.50;22.50
65383;PMS5003;51986;52.788;41.368;2023-04-08T09:55:59;32.00;26.25;21.00
65383;PMS5003;51986;52.788;41.368;2023-04-08T09:58:42;33.50;28.50;22.00
65383;PMS5003;51986;52.788;41.368;2023-04-08T10:01:18;33.50;28.00;21.50
65383;PMS5003;51986;52.788;41.368;2023-04-08T10:04:09;34.00;28.50;23.00
65383;PMS5003;51986;52.788;41.368;2023-04-08T10:06:40;30.00;25.50;20.00
65383;PMS5003;51986;52.788;41.368;2023-04-08T10:09:07;32.00;27.50;22.00
65383;PMS5003;51986;52.788;41.368;2023-04-08T10:11:35;36.75;30.75;23.00
65383;PMS5003;51986;52.788;41.368;2023-04-08T10:14:03;32.00;28.00;21.00
65383;PMS5003;51986;52.788;41.368;2023-04-08T10:16:30;30.25;26.00;20.00
65383;PMS5003;51986;52.788;41.368;2023-04-08T10:18:57;34.25;28.50;23.00
65383;PMS5003;51986;52.788;41.368;2023-04-08T10:21:37;35.75;30.25;23.50
65383;PMS5003;51986;52.788;41.368;2023-04-08T10:24:06;33.00;27.25;22.00
65383;PMS5003;51986;52.788;41.368;2023-04-08T10:26:45;29.00;25.00;20.50
65383;PMS5003;51986;52.788;41.368;2023-04-08T10:31:48;33.00;28.50;21.75
65383;PMS5003;51986;52.788;41.368;2023-04-08T10:36:44;33.75;29.00;23.00
65383;PMS5003;51986;52.788;41.368;2023-04-08T10:39:11;35.25;29.75;23.00
65383;PMS5003;51986;52.788;41.368;2023-04-08T10:41:43;35.75;30.00;23.75
65383;PMS5003;51986;52.788;41.368;2023-04-08T10:44:17;35.00;29.00;23.00
65383;PMS5003;51986;52.788;41.368;2023-04-08T10:46:45;33.00;28.00;21.50
65383;PMS5003;51986;52.788;41.368;2023-04-08T10:49:15;29.25;25.25;19.00
65383;PMS5003;51986;52.788;41.368;2023-04-08T10:51:43;32.75;27.50;21.50
65383;PMS5003;51986;52.788;41.368;2023-04-08T10:54:11;32.00;27.00;21.00
65383;PMS5003;51986;52.788;41.368;2023-04-08T10:56:46;31.25;27.00;20.75
65383;PMS5003;51986;52.788;41.368;2023-04-08T10:59:51;33.00;28.50;22.00
65383;PMS5003;51986;52.788;41.368;2023-04-08T11:02:14;33.75;28.75;22.00
65383;PMS5003;51986;52.788;41.368;2023-04-08T11:04:41;32.00;27.00;21.00
65383;PMS5003;51986;52.788;41.368;2023-04-08T11:07:08;35.50;30.00;23.50
65383;PMS5003;51986;52.788;41.368;2023-04-08T11:09:35;35.25;30.00;24.00
65383;PMS5003;51986;52.788;41.368;2023-04-08T11:12:02;36.75;31.00;24.00
65383;PMS5003;51986;52.788;41.368;2023-04-08T11:14:30;38.00;31.00;24.00
65383;PMS5003;51986;52.788;41.368;2023-04-08T11:16:57;36.50;30.50;23.50
65383;PMS5003;51986;52.788;41.368;2023-04-08T11:19:24;36.25;30.00;23.50
65383;PMS5003;51986;52.788;41.368;2023-04-08T11:21:50;33.00;27.50;22.00
65383;PMS5003;51986;52.788;41.368;2023-04-08T11:24:19;37.75;32.00;24.75
65383;PMS5003;51986;52.788;41.368;2023-04-08T11:26:47;36.50;30.50;23.25
65383;PMS5003;51986;52.788;41.368;2023-04-08T11:29:14;35.50;30.00;23.00
65383;PMS5003;51986;52.788;41.368;2023-04-08T11:31:41;34.50;28.00;21.25
65383;PMS5003;51986;52.788;41.368;2023-04-08T11:34:10;33.75;28.50;22.00
65383;PMS5003;51986;52.788;41.368;2023-04-08T11:36:40;36.00;30.00;23.50
65383;PMS5003;51986;52.788;41.368;2023-04-08T11:39:10;35.75;30.00;23.00
65383;PMS5003;51986;52.788;41.368;2023-04-08T11:41:38;36.50;30.75;23.50
65383;PMS5003;51986;52.788;41.368;2023-04-08T11:44:06;39.50;32.00;24.00
65383;PMS5003;51986;52.788;41.368;2023-04-08T11:46:33;41.50;33.50;25.25
65383;PMS5003;51986;52.788;41.368;2023-04-08T11:49:02;42.00;34.00;26.00
65383;PMS5003;51986;52.788;41.368;2023-04-08T11:51:30;39.50;32.50;24.75
65383;PMS5003;51986;52.788;41.368;2023-04-08T11:53:58;37.00;30.00;22.50
65383;PMS5003;51986;52.788;41.368;2023-04-08T11:56:25;37.75;31.00;24.00
65383;PMS5003;51986;52.788;41.368;2023-04-08T11:58:52;38.50;32.00;25.00
65383;PMS5003;51986;52.788;41.368;2023-04-08T12:01:19;37.00;31.50;23.50
65383;PMS5003;51986;52.788;41.368;2023-04-08T12:03:59;40.75;33.50;26.00
65383;PMS5003;51986;52.788;41.368;2023-04-08T12:06:28;37.00;31.00;23.00
65383;PMS5003;51986;52.788;41.368;2023-04-08T12:08:58;35.00;29.75;23.00
65383;PMS5003;51986;52.788;41.368;2023-04-08T12:11:26;35.00;29.50;23.00
65383;PMS5003;51986;52.788;41.368;2023-04-08T12:13:53;38.00;32.00;25.00
65383;PMS5003;51986;52.788;41.368;2023-04-08T12:16:20;40.00;32.75;25.75
65383;PMS5003;51986;52.788;41.368;2023-04-08T12:18:47;37.00;30.50;22.75
65383;PMS5003;51986;52.788;41.368;2023-04-08T12:21:14;39.00;32.00;24.00
65383;PMS5003;51986;52.788;41.368;2023-04-08T12:23:40;38.00;30.75;24.00
65383;PMS5003;51986;52.788;41.368;2023-04-08T12:26:08;38.75;32.50;24.25
65383;PMS5003;51986;52.788;41.368;2023-04-08T12:28:35;41.00;33.00;26.00
65383;PMS5003;51986;52.788;41.368;2023-04-08T12:31:02;42.25;34.25;26.50
65383;PMS5003;51986;52.788;41.368;2023-04-08T12:33:29;39.50;32.00;25.00
65383;PMS5003;51986;52.788;41.368;2023-04-08T12:35:56;37.25;31.50;24.50
65383;PMS5003;51986;52.788;41.368;2023-04-08T12:38:24;38.50;31.50;24.50
65383;PMS5003;51986;52.788;41.368;2023-04-08T12:40:51;37.50;31.00;24.00
65383;PMS5003;51986;52.788;41.368;2023-04-08T12:43:19;37.00;30.50;23.50
65383;PMS5003;51986;52.788;41.368;2023-04-08T12:45:46;37.00;30.50;23.00
65383;PMS5003;51986;52.788;41.368;2023-04-08T12:48:13;36.50;31.00;23.00
65383;PMS5003;51986;52.788;41.368;2023-04-08T12:50:40;36.50;30.00;23.00
65383;PMS5003;51986;52.788;41.368;2023-04-08T12:53:07;33.75;28.00;22.00
65383;PMS5003;51986;52.788;41.368;2023-04-08T12:55:34;37.50;31.00;23.75
65383;PMS5003;51986;52.788;41.368;2023-04-08T12:58:01;38.75;31.50;24.00
65383;PMS5003;51986;52.788;41.368;2023-04-08T13:00:28;37.00;30.00;24.00
65383;PMS5003;51986;52.788;41.368;2023-04-08T13:02:54;35.25;30.00;23.00
65383;PMS5003;51986;52.788;41.368;2023-04-08T13:05:22;34.50;29.00;22.00
65383;PMS5003;51986;52.788;41.368;2023-04-08T13:08:08;35.00;28.50;22.00
65383;PMS5003;51986;52.788;41.368;2023-04-08T13:10:35;34.50;29.50;22.25
65383;PMS5003;51986;52.788;41.368;2023-04-08T13:13:03;35.00;29.50;23.00
65383;PMS5003;51986;52.788;41.368;2023-04-08T13:15:30;34.00;29.00;22.00
65383;PMS5003;51986;52.788;41.368;2023-04-08T13:17:57;31.50;27.00;21.00
65383;PMS5003;51986;52.788;41.368;2023-04-08T13:20:25;31.50;26.75;21.00
65383;PMS5003;51986;52.788;41.368;2023-04-08T13:22:55;29.25;24.75;19.25
65383;PMS5003;51986;52.788;41.368;2023-04-08T13:25:22;33.75;28.00;22.00
65383;PMS5003;51986;52.788;41.368;2023-04-08T13:27:50;36.00;29.75;23.00
65383;PMS5003;51986;52.788;41.368;2023-04-08T13:30:17;35.50;29.00;23.00
65383;PMS5003;51986;52.788;41.368;2023-04-08T13:32:47;34.00;28.50;22.00
65383;PMS5003;51986;52.788;41.368;2023-04-08T13:35:16;30.00;25.00;19.00
65383;PMS5003;51986;52.788;41.368;2023-04-08T13:37:44;32.75;27.25;21.75
65383;PMS5003;51986;52.788;41.368;2023-04-08T13:40:11;33.00;27.25;21.00
65383;PMS5003;51986;52.788;41.368;2023-04-08T13:42:38;34.50;28.50;22.75
65383;PMS5003;51986;52.788;41.368;2023-04-08T13:45:05;34.00;29.00;23.00
65383;PMS5003;51986;52.788;41.368;2023-04-08T13:47:32;34.00;29.00;22.00
65383;PMS5003;51986;52.788;41.368;2023-04-08T13:50:03;34.50;29.00;22.00
65383;PMS5003;51986;52.788;41.368;2023-04-08T13:52:30;33.50;28.00;22.00
65383;PMS5003;51986;52.788;41.368;2023-04-08T13:54:57;35.00;29.50;23.00
65383;PMS5003;51986;52.788;41.368;2023-04-08T13:57:24;33.00;28.00;21.00
65383;PMS5003;51986;52.788;41.368;2023-04-08T13:59:51;35.25;29.50;23.00